Time;durP1;ratioP1;P1;durP2;ratioP2;P2;SDS_P1;SDS_P2;PMS_P1;PMS_P2;Temp;Humidity;BMP_temperature;BMP_pressure;BME280_temperature;BME280_humidity;BME280_pressure;Samples;Min_cycle;Max_cycle;Signal;HPM_P1;HPM_P2
2023/06/20 00:01:32;;;;;;;13.98;8.48;;;;;;;;;;5061100;28;25096;-73
2023/06/20 00:03:58;;;;;;;12.63;7.82;;;;;;;;;;5063993;28;25074;-71
2023/06/20 00:06:24;;;;;;;13.25;8.75;;;;;;;;;;5067368;28;25070;-71
2023/06/20 00:08:50;;;;;;;14.25;9.25;;;;;;;;;;5050791;28;25051;-73
2023/06/20 00:11:16;;;;;;;10.15;7.47;;;;;;;;;;5060369;28;25053;-73
2023/06/20 00:13:43;;;;;;;14.02;8.05;;;;;;;;;;5061035;28;25058;-72
2023/06/20 00:16:10;;;;;;;14.90;8.32;;;;;;;;;;5061512;28;25060;-73
2023/06/20 00:18:36;;;;;;;13.48;8.02;;;;;;;;;;5049336;28;25103;-72
2023/06/20 00:21:02;;;;;;;15.25;8.43;;;;;;;;;;5061668;28;25092;-74
2023/06/20 00:23:32;;;;;;;14.25;7.95;;;;;;;;;;5060063;28;25066;-73
2023/06/20 00:25:58;;;;;;;13.02;7.78;;;;;;;;;;5063199;28;25125;-72
2023/06/20 00:28:25;;;;;;;16.05;8.75;;;;;;;;;;5063804;28;25099;-73
2023/06/20 00:30:51;;;;;;;14.70;8.93;;;;;;;;;;5062100;28;25071;-71
2023/06/20 00:33:20;;;;;;;13.48;8.50;;;;;;;;;;5062746;28;25172;-71
2023/06/20 00:35:46;;;;;;;14.00;8.07;;;;;;;;;;5048477;28;25067;-73
2023/06/20 00:38:12;;;;;;;14.38;7.60;;;;;;;;;;5064210;28;25061;-72
2023/06/20 00:40:38;;;;;;;10.68;7.22;;;;;;;;;;5063418;28;25056;-73
2023/06/20 00:43:04;;;;;;;11.77;7.55;;;;;;;;;;5046137;28;25057;-74
2023/06/20 00:45:32;;;;;;;13.18;7.93;;;;;;;;;;5061077;28;25163;-73
2023/06/20 00:47:59;;;;;;;12.27;7.75;;;;;;;;;;5047128;28;25064;-70
2023/06/20 00:50:27;;;;;;;12.48;7.82;;;;;;;;;;5061431;28;25046;-72
2023/06/20 00:53:05;;;;;;;11.43;7.38;;;;;;;;;;5060044;28;25062;-72
2023/06/20 00:55:32;;;;;;;15.20;8.57;;;;;;;;;;5062061;28;25058;-73
2023/06/20 00:57:59;;;;;;;14.52;9.02;;;;;;;;;;5068677;28;25056;-74
2023/06/20 01:00:25;;;;;;;13.45;7.63;;;;;;;;;;5075771;28;25060;-73
2023/06/20 01:03:01;;;;;;;15.75;8.75;;;;;;;;;;5065454;28;25072;-74
2023/06/20 01:05:27;;;;;;;14.02;9.27;;;;;;;;;;5063314;28;25058;-73
2023/06/20 01:08:12;;;;;;;11.70;7.00;;;;;;;;;;5066667;28;25042;-73
2023/06/20 01:10:52;;;;;;;13.18;8.57;;;;;;;;;;5052179;28;25124;-72
2023/06/20 01:13:44;;;;;;;13.38;8.63;;;;;;;;;;5069562;28;25086;-72
2023/06/20 01:16:28;;;;;;;15.27;7.68;;;;;;;;;;5035398;28;25055;-73
2023/06/20 01:19:00;;;;;;;12.13;7.68;;;;;;;;;;5067804;28;25075;-71
2023/06/20 01:21:30;;;;;;;14.80;8.00;;;;;;;;;;5063236;28;25089;-72
2023/06/20 01:24:05;;;;;;;12.15;8.00;;;;;;;;;;5060336;28;25063;-73
2023/06/20 01:26:34;;;;;;;13.93;9.02;;;;;;;;;;5066322;28;25145;-72
2023/06/20 01:29:10;;;;;;;12.90;7.72;;;;;;;;;;5064297;28;25061;-73
2023/06/20 01:31:38;;;;;;;14.38;8.23;;;;;;;;;;5062661;28;25086;-72
2023/06/20 01:34:07;;;;;;;10.85;7.10;;;;;;;;;;5062000;28;25146;-73
2023/06/20 01:36:35;;;;;;;13.45;8.60;;;;;;;;;;5062767;28;25055;-72
2023/06/20 01:39:03;;;;;;;13.02;7.97;;;;;;;;;;5060348;28;25067;-75
2023/06/20 01:41:31;;;;;;;12.55;8.35;;;;;;;;;;5061148;28;25055;-74
2023/06/20 01:43:58;;;;;;;10.50;7.40;;;;;;;;;;5057605;28;25058;-73
2023/06/20 01:46:25;;;;;;;11.63;7.97;;;;;;;;;;5062535;28;25097;-73
2023/06/20 01:48:52;;;;;;;13.52;7.15;;;;;;;;;;5056969;28;25108;-73
2023/06/20 01:51:19;;;;;;;11.95;7.20;;;;;;;;;;5060100;28;25064;-72
2023/06/20 01:53:45;;;;;;;12.10;7.72;;;;;;;;;;5059753;28;25070;-73
2023/06/20 01:56:12;;;;;;;11.73;8.15;;;;;;;;;;5059350;28;25149;-73
2023/06/20 01:58:40;;;;;;;10.60;7.45;;;;;;;;;;5058137;28;25060;-71
2023/06/20 02:01:07;;;;;;;16.10;8.35;;;;;;;;;;5061474;28;25071;-72
2023/06/20 02:03:33;;;;;;;13.65;7.70;;;;;;;;;;5060450;28;25107;-73
2023/06/20 02:06:00;;;;;;;19.73;9.18;;;;;;;;;;5059654;28;25072;-72
2023/06/20 02:08:26;;;;;;;15.15;8.15;;;;;;;;;;5044869;28;25051;-73
2023/06/20 02:10:53;;;;;;;11.88;7.75;;;;;;;;;;5060289;28;25078;-72
2023/06/20 02:13:21;;;;;;;13.40;7.90;;;;;;;;;;5058439;28;25113;-72
2023/06/20 02:15:49;;;;;;;12.07;8.05;;;;;;;;;;5063810;28;25051;-73
2023/06/20 02:18:15;;;;;;;13.75;7.70;;;;;;;;;;5056737;28;25153;-72
2023/06/20 02:20:41;;;;;;;12.82;7.32;;;;;;;;;;5063737;28;25052;-72
2023/06/20 02:23:07;;;;;;;13.88;8.35;;;;;;;;;;5066530;28;25073;-73
2023/06/20 02:25:34;;;;;;;11.18;7.57;;;;;;;;;;5049675;28;25074;-73
2023/06/20 02:28:01;;;;;;;11.85;7.53;;;;;;;;;;5065270;28;25128;-73
2023/06/20 02:30:29;;;;;;;11.27;7.68;;;;;;;;;;5067930;28;25064;-71
2023/06/20 02:32:56;;;;;;;14.75;7.90;;;;;;;;;;5061925;28;25096;-72
2023/06/20 02:35:24;;;;;;;14.13;8.65;;;;;;;;;;5064647;28;25143;-73
2023/06/20 02:37:52;;;;;;;12.38;8.80;;;;;;;;;;5065303;28;25075;-72
2023/06/20 02:40:22;;;;;;;12.95;7.95;;;;;;;;;;5066941;28;25065;-73
2023/06/20 02:42:48;;;;;;;14.23;8.25;;;;;;;;;;5063878;28;25041;-72
2023/06/20 02:45:15;;;;;;;14.73;8.68;;;;;;;;;;5063002;28;25075;-73
2023/06/20 02:47:57;;;;;;;11.27;7.90;;;;;;;;;;5063568;28;25097;-71
2023/06/20 02:50:27;;;;;;;12.60;7.93;;;;;;;;;;5062455;28;25065;-73
2023/06/20 02:53:19;;;;;;;13.55;8.77;;;;;;;;;;5063484;28;25138;-73
2023/06/20 02:55:46;;;;;;;14.70;8.15;;;;;;;;;;5061115;28;25064;-73
2023/06/20 02:58:13;;;;;;;13.32;8.02;;;;;;;;;;5063426;28;25149;-72
2023/06/20 03:00:45;;;;;;;11.75;8.38;;;;;;;;;;5065492;28;25107;-73
2023/06/20 03:03:14;;;;;;;12.30;7.20;;;;;;;;;;5064187;28;25090;-71
2023/06/20 03:05:44;;;;;;;12.00;8.75;;;;;;;;;;5061041;28;25060;-72
2023/06/20 03:08:14;;;;;;;14.32;7.07;;;;;;;;;;5072485;28;25053;-72
2023/06/20 03:10:41;;;;;;;8.77;6.82;;;;;;;;;;5069856;28;25079;-71
2023/06/20 03:13:07;;;;;;;11.50;7.68;;;;;;;;;;5065592;28;25053;-73
2023/06/20 03:15:33;;;;;;;11.38;7.68;;;;;;;;;;5065531;28;25223;-73
2023/06/20 03:18:00;;;;;;;13.38;8.10;;;;;;;;;;5062853;28;25095;-73
2023/06/20 03:20:27;;;;;;;13.40;8.40;;;;;;;;;;5062477;28;25079;-72
2023/06/20 03:22:53;;;;;;;11.90;7.93;;;;;;;;;;5064983;28;25053;-72
2023/06/20 03:25:19;;;;;;;12.85;8.13;;;;;;;;;;5050829;28;25136;-72
2023/06/20 03:27:45;;;;;;;12.65;7.80;;;;;;;;;;5066014;28;25086;-73
2023/06/20 03:30:11;;;;;;;13.70;8.30;;;;;;;;;;5067763;28;25070;-73
2023/06/20 03:32:37;;;;;;;13.43;7.32;;;;;;;;;;5071670;28;25072;-72
2023/06/20 03:35:04;;;;;;;12.05;7.80;;;;;;;;;;5067103;28;25158;-72
2023/06/20 03:37:30;;;;;;;18.33;7.82;;;;;;;;;;5063962;28;25118;-72
2023/06/20 03:39:56;;;;;;;12.07;7.82;;;;;;;;;;5064558;28;25079;-72
2023/06/20 03:42:22;;;;;;;12.20;7.72;;;;;;;;;;5064458;28;25114;-72
2023/06/20 03:44:48;;;;;;;11.00;8.13;;;;;;;;;;5065784;28;25072;-72
2023/06/20 03:47:14;;;;;;;11.40;7.90;;;;;;;;;;5063262;28;25072;-71
2023/06/20 03:49:40;;;;;;;14.43;8.13;;;;;;;;;;5062333;28;25095;-72
2023/06/20 03:52:06;;;;;;;14.05;8.15;;;;;;;;;;5063677;28;25064;-72
2023/06/20 03:54:34;;;;;;;11.15;7.57;;;;;;;;;;5064247;28;25087;-73
2023/06/20 03:57:00;;;;;;;10.93;7.57;;;;;;;;;;5063316;28;25171;-73
2023/06/20 03:59:26;;;;;;;11.35;7.85;;;;;;;;;;5051873;28;25100;-72
2023/06/20 04:01:52;;;;;;;10.45;7.03;;;;;;;;;;5061777;28;25074;-73
2023/06/20 04:04:19;;;;;;;14.07;7.78;;;;;;;;;;5061009;28;25054;-73
2023/06/20 04:06:49;;;;;;;13.18;7.72;;;;;;;;;;5062493;28;25064;-74
2023/06/20 04:09:16;;;;;;;13.65;7.28;;;;;;;;;;5061954;28;25084;-73
2023/06/20 04:11:42;;;;;;;11.50;8.23;;;;;;;;;;5062978;28;25066;-72
2023/06/20 04:14:08;;;;;;;11.10;6.85;;;;;;;;;;5062615;28;25107;-73
2023/06/20 04:16:34;;;;;;;11.73;7.18;;;;;;;;;;5063839;28;25097;-72
2023/06/20 04:19:00;;;;;;;13.98;7.78;;;;;;;;;;5063758;28;25065;-73
2023/06/20 04:21:26;;;;;;;10.45;7.13;;;;;;;;;;5051286;28;25125;-73
2023/06/20 04:23:52;;;;;;;10.30;7.05;;;;;;;;;;5063024;28;25114;-73
2023/06/20 04:26:18;;;;;;;11.95;7.10;;;;;;;;;;5061901;28;25089;-72
2023/06/20 04:28:44;;;;;;;11.88;7.70;;;;;;;;;;5062023;28;25110;-73
2023/06/20 04:31:11;;;;;;;11.45;7.68;;;;;;;;;;5061947;28;25062;-73
2023/06/20 04:33:43;;;;;;;12.27;7.43;;;;;;;;;;5061901;28;25118;-74
2023/06/20 04:36:12;;;;;;;10.80;7.35;;;;;;;;;;5060833;28;25125;-73
2023/06/20 04:38:38;;;;;;;8.32;6.60;;;;;;;;;;5060432;28;25067;-72
2023/06/20 04:41:04;;;;;;;12.38;7.85;;;;;;;;;;5060528;28;25054;-72
2023/06/20 04:43:30;;;;;;;10.88;7.03;;;;;;;;;;5061527;28;25060;-72
2023/06/20 04:45:56;;;;;;;10.02;7.28;;;;;;;;;;5061403;28;25060;-72
2023/06/20 04:48:27;;;;;;;14.65;7.72;;;;;;;;;;5061144;28;25068;-71
2023/06/20 04:50:55;;;;;;;11.43;7.07;;;;;;;;;;5064152;28;25146;-70
2023/06/20 04:53:22;;;;;;;12.85;7.00;;;;;;;;;;5061483;28;25138;-74
2023/06/20 04:55:48;;;;;;;10.40;7.13;;;;;;;;;;5047019;28;25096;-72
2023/06/20 04:58:14;;;;;;;9.77;6.65;;;;;;;;;;5062571;28;25063;-73
2023/06/20 05:00:40;;;;;;;11.30;7.72;;;;;;;;;;5087456;28;25054;-72
2023/06/20 05:03:06;;;;;;;11.70;8.02;;;;;;;;;;5087326;28;25077;-72
2023/06/20 05:05:32;;;;;;;11.25;6.68;;;;;;;;;;5083100;28;25062;-73
2023/06/20 05:07:59;;;;;;;12.05;8.00;;;;;;;;;;5075288;28;25080;-73
2023/06/20 05:10:25;;;;;;;10.40;7.72;;;;;;;;;;5086840;28;25086;-73
2023/06/20 05:12:51;;;;;;;11.50;8.00;;;;;;;;;;5086667;28;25079;-73
2023/06/20 05:15:23;;;;;;;11.02;7.80;;;;;;;;;;5083426;28;25124;-70
2023/06/20 05:17:52;;;;;;;12.60;8.20;;;;;;;;;;5065524;28;25079;-75
2023/06/20 05:20:19;;;;;;;11.23;8.35;;;;;;;;;;5065333;28;25093;-71
2023/06/20 05:22:45;;;;;;;12.80;7.97;;;;;;;;;;5064562;28;25064;-72
2023/06/20 05:25:11;;;;;;;13.05;7.85;;;;;;;;;;5065400;28;25164;-72
2023/06/20 05:27:37;;;;;;;12.65;8.02;;;;;;;;;;5073521;28;25073;-72
2023/06/20 05:30:04;;;;;;;15.55;7.97;;;;;;;;;;5075776;28;25073;-72
2023/06/20 05:32:30;;;;;;;13.63;7.95;;;;;;;;;;5070943;28;25053;-72
2023/06/20 05:34:56;;;;;;;13.80;9.27;;;;;;;;;;5081678;28;25073;-71
2023/06/20 05:37:22;;;;;;;14.02;8.55;;;;;;;;;;5080116;28;25120;-71
2023/06/20 05:39:48;;;;;;;13.25;9.02;;;;;;;;;;5072428;28;25082;-73
2023/06/20 05:42:14;;;;;;;12.90;8.13;;;;;;;;;;5081586;28;25074;-74
2023/06/20 05:44:40;;;;;;;11.98;8.98;;;;;;;;;;5066075;28;25061;-73
2023/06/20 05:47:06;;;;;;;13.48;9.20;;;;;;;;;;5075059;28;25082;-74
2023/06/20 05:49:32;;;;;;;12.55;8.88;;;;;;;;;;5084671;28;25060;-72
2023/06/20 05:51:58;;;;;;;14.70;9.50;;;;;;;;;;5070834;28;25069;-72
2023/06/20 05:54:25;;;;;;;11.63;8.80;;;;;;;;;;5057869;28;25042;-72
2023/06/20 05:56:51;;;;;;;16.10;9.48;;;;;;;;;;5049286;28;25092;-72
2023/06/20 05:59:17;;;;;;;13.52;9.00;;;;;;;;;;5061468;28;25084;-72
2023/06/20 06:01:44;;;;;;;13.00;9.23;;;;;;;;;;5060604;28;25174;-72
2023/06/20 06:04:10;;;;;;;13.10;9.30;;;;;;;;;;5045776;28;25141;-71
2023/06/20 06:06:36;;;;;;;14.95;10.15;;;;;;;;;;5058931;28;25095;-74
2023/06/20 06:09:03;;;;;;;13.38;9.10;;;;;;;;;;5058724;28;25051;-73
2023/06/20 06:11:29;;;;;;;13.23;9.73;;;;;;;;;;5062550;28;25063;-75
2023/06/20 06:13:55;;;;;;;13.30;9.52;;;;;;;;;;5058308;28;25088;-75
2023/06/20 06:16:21;;;;;;;15.10;10.23;;;;;;;;;;5058366;28;25101;-74
2023/06/20 06:18:47;;;;;;;16.45;9.95;;;;;;;;;;5059027;28;25060;-75
2023/06/20 06:21:13;;;;;;;15.30;9.70;;;;;;;;;;5059464;28;25072;-76
2023/06/20 06:23:39;;;;;;;16.90;10.23;;;;;;;;;;5060398;28;24940;-75
2023/06/20 06:26:05;;;;;;;18.42;11.43;;;;;;;;;;5063045;28;25129;-76
2023/06/20 06:28:31;;;;;;;17.95;11.13;;;;;;;;;;5059300;28;25144;-73
2023/06/20 06:31:01;;;;;;;14.60;10.88;;;;;;;;;;5064838;28;25075;-71
2023/06/20 06:33:30;;;;;;;16.83;10.68;;;;;;;;;;5057717;28;25129;-70
2023/06/20 06:35:56;;;;;;;15.82;11.35;;;;;;;;;;5058895;28;25072;-72
2023/06/20 06:38:25;;;;;;;14.85;11.00;;;;;;;;;;5058042;28;25118;-74
2023/06/20 06:40:54;;;;;;;15.65;10.70;;;;;;;;;;5060920;28;25057;-72
2023/06/20 06:43:20;;;;;;;18.25;11.77;;;;;;;;;;5058914;28;25146;-72
2023/06/20 06:45:46;;;;;;;17.15;12.23;;;;;;;;;;5057917;28;25075;-73
2023/06/20 06:48:12;;;;;;;17.88;12.15;;;;;;;;;;5059288;28;25050;-73
2023/06/20 06:50:38;;;;;;;20.27;12.10;;;;;;;;;;5042211;28;25070;-72
2023/06/20 06:53:04;;;;;;;21.00;12.10;;;;;;;;;;5067560;28;25027;-73
2023/06/20 06:55:30;;;;;;;19.20;11.82;;;;;;;;;;5058606;28;25074;-72
2023/06/20 06:57:57;;;;;;;19.75;12.70;;;;;;;;;;5059143;28;25076;-73
2023/06/20 07:00:23;;;;;;;21.42;13.10;;;;;;;;;;5062979;28;25054;-72
2023/06/20 07:02:49;;;;;;;22.77;12.32;;;;;;;;;;5059670;28;25147;-72
2023/06/20 07:05:15;;;;;;;17.40;12.70;;;;;;;;;;5057716;28;25072;-73
2023/06/20 07:07:41;;;;;;;18.52;13.25;;;;;;;;;;5055995;28;25127;-73
2023/06/20 07:10:07;;;;;;;19.38;11.73;;;;;;;;;;5059322;28;25068;-73
2023/06/20 07:12:33;;;;;;;19.30;13.35;;;;;;;;;;5054880;28;25103;-72
2023/06/20 07:14:59;;;;;;;19.40;12.93;;;;;;;;;;5059479;28;25135;-73
2023/06/20 07:17:25;;;;;;;17.15;12.48;;;;;;;;;;5057660;28;25055;-74
2023/06/20 07:19:52;;;;;;;19.25;12.95;;;;;;;;;;5056246;28;25088;-73
2023/06/20 07:22:18;;;;;;;19.55;12.50;;;;;;;;;;5056661;28;25070;-74
2023/06/20 07:24:44;;;;;;;16.65;11.82;;;;;;;;;;5056276;28;25063;-73
2023/06/20 07:27:10;;;;;;;19.67;11.90;;;;;;;;;;5043168;28;25074;-73
2023/06/20 07:29:36;;;;;;;17.30;11.45;;;;;;;;;;5058477;28;25063;-74
2023/06/20 07:32:02;;;;;;;13.57;10.80;;;;;;;;;;5057684;28;25073;-72
2023/06/20 07:34:28;;;;;;;17.23;9.82;;;;;;;;;;5056022;28;25079;-73
2023/06/20 07:36:54;;;;;;;14.07;9.98;;;;;;;;;;5057209;28;25065;-74
2023/06/20 07:39:20;;;;;;;11.88;9.48;;;;;;;;;;5055961;28;25106;-74
2023/06/20 07:41:46;;;;;;;13.90;9.77;;;;;;;;;;5053838;28;25076;-74
2023/06/20 07:44:12;;;;;;;12.18;9.55;;;;;;;;;;5055347;28;25109;-73
2023/06/20 07:46:39;;;;;;;13.48;8.40;;;;;;;;;;5055956;28;25063;-72
2023/06/20 07:49:05;;;;;;;13.27;10.50;;;;;;;;;;5057778;28;25116;-73
2023/06/20 07:51:31;;;;;;;14.82;9.63;;;;;;;;;;5056389;28;25150;-74
2023/06/20 07:53:57;;;;;;;12.75;8.50;;;;;;;;;;5056283;28;25108;-73
2023/06/20 07:56:23;;;;;;;12.23;9.20;;;;;;;;;;5042821;28;25167;-72
2023/06/20 07:58:49;;;;;;;13.88;9.20;;;;;;;;;;5055973;28;25104;-72
2023/06/20 08:01:15;;;;;;;14.45;8.68;;;;;;;;;;5056405;28;25097;-74
2023/06/20 08:03:41;;;;;;;12.15;7.90;;;;;;;;;;5054230;28;25047;-72
2023/06/20 08:06:07;;;;;;;13.65;8.88;;;;;;;;;;5060905;28;25192;-74
2023/06/20 08:08:33;;;;;;;12.52;8.23;;;;;;;;;;5049153;28;25087;-75
2023/06/20 08:10:59;;;;;;;12.88;8.88;;;;;;;;;;5057538;28;25067;-75
2023/06/20 08:13:27;;;;;;;9.98;7.82;;;;;;;;;;5039760;28;25069;-74
2023/06/20 08:15:52;;;;;;;12.57;7.72;;;;;;;;;;5055752;28;25097;-73
2023/06/20 08:18:18;;;;;;;10.80;7.97;;;;;;;;;;5055931;28;25114;-74
2023/06/20 08:20:45;;;;;;;11.00;7.97;;;;;;;;;;5061529;28;25083;-72
2023/06/20 08:23:11;;;;;;;12.50;8.45;;;;;;;;;;5040319;28;25141;-73
2023/06/20 08:25:37;;;;;;;10.27;8.48;;;;;;;;;;5056517;28;25175;-74
2023/06/20 08:28:03;;;;;;;12.43;8.60;;;;;;;;;;5057543;28;25118;-74
2023/06/20 08:30:29;;;;;;;11.20;8.43;;;;;;;;;;5057133;28;25058;-74
2023/06/20 08:32:55;;;;;;;11.13;7.68;;;;;;;;;;5057423;28;25057;-73
2023/06/20 08:35:21;;;;;;;12.65;9.00;;;;;;;;;;5056015;28;25063;-74
2023/06/20 08:37:47;;;;;;;11.07;7.97;;;;;;;;;;5057949;28;25142;-74
2023/06/20 08:40:14;;;;;;;8.10;7.30;;;;;;;;;;5057420;28;25150;-73
2023/06/20 08:42:42;;;;;;;9.27;6.82;;;;;;;;;;5057555;28;25159;-74
2023/06/20 08:45:09;;;;;;;8.60;7.15;;;;;;;;;;5057437;28;25057;-73
2023/06/20 08:47:35;;;;;;;15.13;7.88;;;;;;;;;;5043234;28;25048;-73
2023/06/20 08:50:01;;;;;;;13.55;7.57;;;;;;;;;;5046399;28;25063;-73
2023/06/20 08:52:30;;;;;;;9.80;7.57;;;;;;;;;;5059874;28;25156;-75
2023/06/20 08:54:57;;;;;;;15.77;8.55;;;;;;;;;;5052517;28;25069;-73
2023/06/20 08:57:23;;;;;;;11.35;8.45;;;;;;;;;;5064095;28;25062;-73
2023/06/20 08:59:49;;;;;;;8.90;7.32;;;;;;;;;;5053430;28;25064;-74
2023/06/20 09:02:18;;;;;;;12.05;7.50;;;;;;;;;;5042017;28;25094;-74
2023/06/20 09:04:44;;;;;;;9.52;7.47;;;;;;;;;;5039692;28;25096;-72
2023/06/20 09:07:22;;;;;;;9.70;6.95;;;;;;;;;;5053848;28;25102;-72
2023/06/20 09:09:48;;;;;;;7.72;5.90;;;;;;;;;;5053767;28;25107;-73
2023/06/20 09:12:15;;;;;;;7.72;6.57;;;;;;;;;;5053669;28;25074;-73
2023/06/20 09:14:41;;;;;;;7.75;6.07;;;;;;;;;;5056563;28;25064;-72
2023/06/20 09:17:09;;;;;;;7.03;5.75;;;;;;;;;;5055648;28;25073;-72
2023/06/20 09:19:44;;;;;;;8.05;5.47;;;;;;;;;;5056564;28;25059;-73
2023/06/20 09:22:13;;;;;;;6.90;5.47;;;;;;;;;;5052085;28;25088;-73
2023/06/20 09:24:42;;;;;;;7.63;5.60;;;;;;;;;;5054074;28;25078;-73
2023/06/20 09:27:08;;;;;;;9.23;5.55;;;;;;;;;;5054165;28;25067;-75
2023/06/20 09:29:48;;;;;;;7.05;5.07;;;;;;;;;;5054996;28;24880;-74
2023/06/20 09:32:21;;;;;;;8.73;6.00;;;;;;;;;;5031834;28;25139;-73
2023/06/20 09:34:47;;;;;;;7.38;5.10;;;;;;;;;;5050224;28;25111;-74
2023/06/20 09:37:15;;;;;;;9.32;5.20;;;;;;;;;;5033254;28;25071;-72
2023/06/20 09:39:40;;;;;;;7.80;5.35;;;;;;;;;;5036070;28;25096;-74
2023/06/20 09:42:10;;;;;;;5.75;5.15;;;;;;;;;;5045757;28;25118;-72
2023/06/20 09:44:36;;;;;;;5.72;4.45;;;;;;;;;;5053768;28;25040;-72
2023/06/20 09:47:02;;;;;;;11.10;6.90;;;;;;;;;;5054052;28;25141;-72
2023/06/20 09:49:30;;;;;;;6.68;5.47;;;;;;;;;;5054005;28;25065;-74
2023/06/20 09:52:02;;;;;;;7.43;4.72;;;;;;;;;;5053778;28;25068;-73
2023/06/20 09:54:33;;;;;;;9.13;4.75;;;;;;;;;;5053356;28;25185;-72
2023/06/20 09:57:02;;;;;;;5.10;4.38;;;;;;;;;;5055678;28;25131;-71
2023/06/20 09:59:31;;;;;;;4.72;4.03;;;;;;;;;;5053363;28;25058;-72
2023/06/20 10:01:58;;;;;;;4.75;3.83;;;;;;;;;;5054182;28;25065;-73
2023/06/20 10:04:25;;;;;;;4.60;3.90;;;;;;;;;;5051969;28;25062;-71
2023/06/20 10:06:51;;;;;;;8.13;3.95;;;;;;;;;;5053212;28;25094;-71
2023/06/20 10:09:17;;;;;;;6.25;3.28;;;;;;;;;;5053479;28;25080;-73
2023/06/20 10:11:43;;;;;;;8.85;3.72;;;;;;;;;;5056427;28;25110;-72
2023/06/20 10:14:09;;;;;;;6.32;3.75;;;;;;;;;;5054496;28;25089;-72
2023/06/20 10:16:35;;;;;;;6.50;3.88;;;;;;;;;;5049591;28;25048;-73
2023/06/20 10:19:17;;;;;;;6.32;3.90;;;;;;;;;;5053265;28;25167;-73
2023/06/20 10:21:57;;;;;;;4.63;3.28;;;;;;;;;;5042398;28;25058;-72
2023/06/20 10:24:25;;;;;;;5.60;3.88;;;;;;;;;;5049675;28;25096;-72
2023/06/20 10:26:54;;;;;;;4.22;3.75;;;;;;;;;;5051225;28;25056;-73
2023/06/20 10:29:21;;;;;;;5.40;3.92;;;;;;;;;;5048698;28;25075;-73
2023/06/20 10:31:54;;;;;;;5.53;4.32;;;;;;;;;;5046587;28;25094;-72
2023/06/20 10:34:28;;;;;;;7.28;4.28;;;;;;;;;;5065091;28;25110;-72
2023/06/20 10:37:06;;;;;;;5.75;3.58;;;;;;;;;;5024050;28;25050;-70
2023/06/20 10:39:32;;;;;;;5.97;4.43;;;;;;;;;;5041681;28;25153;-71
2023/06/20 10:42:05;;;;;;;6.80;4.25;;;;;;;;;;5047236;28;25086;-70
2023/06/20 10:44:31;;;;;;;3.63;3.20;;;;;;;;;;5047802;28;25057;-70
2023/06/20 10:46:57;;;;;;;10.90;3.88;;;;;;;;;;5040156;28;25056;-70
2023/06/20 10:49:23;;;;;;;5.10;3.63;;;;;;;;;;5059379;28;25074;-69
2023/06/20 10:51:50;;;;;;;5.55;3.28;;;;;;;;;;5045652;28;25085;-70
2023/06/20 10:54:17;;;;;;;5.05;3.42;;;;;;;;;;5044660;28;25141;-72
2023/06/20 10:56:43;;;;;;;3.88;3.45;;;;;;;;;;5055546;28;25170;-71
2023/06/20 10:59:11;;;;;;;8.43;3.75;;;;;;;;;;5061119;28;25055;-71
2023/06/20 11:01:37;;;;;;;3.47;3.13;;;;;;;;;;5069535;28;25082;-70
2023/06/20 11:04:10;;;;;;;3.88;3.15;;;;;;;;;;5066162;28;25151;-70
2023/06/20 11:06:37;;;;;;;3.95;3.42;;;;;;;;;;5061232;28;25057;-71
2023/06/20 11:09:03;;;;;;;5.70;3.90;;;;;;;;;;5065038;28;25121;-71
2023/06/20 11:11:37;;;;;;;3.50;3.15;;;;;;;;;;5054014;28;25058;-70
2023/06/20 11:14:13;;;;;;;5.70;3.50;;;;;;;;;;5063787;28;25062;-73
2023/06/20 11:16:39;;;;;;;3.97;3.50;;;;;;;;;;5048297;28;25143;-70
2023/06/20 11:19:06;;;;;;;5.05;3.35;;;;;;;;;;5061948;28;25077;-70
2023/06/20 11:21:32;;;;;;;10.30;4.50;;;;;;;;;;5063352;28;25068;-71
2023/06/20 11:23:59;;;;;;;9.40;3.92;;;;;;;;;;5075947;28;25061;-71
2023/06/20 11:26:29;;;;;;;4.88;3.70;;;;;;;;;;5074150;28;25126;-71
2023/06/20 11:28:58;;;;;;;4.47;3.70;;;;;;;;;;5071648;28;25106;-70
2023/06/20 11:31:24;;;;;;;7.20;3.72;;;;;;;;;;5061420;28;25060;-71
2023/06/20 11:34:01;;;;;;;8.90;3.63;;;;;;;;;;5068698;28;25059;-71
2023/06/20 11:36:31;;;;;;;3.95;3.60;;;;;;;;;;5077713;28;25056;-71
2023/06/20 11:38:58;;;;;;;5.50;3.25;;;;;;;;;;5054112;28;25073;-73
2023/06/20 11:41:33;;;;;;;4.85;3.35;;;;;;;;;;5074520;28;25111;-73
2023/06/20 11:43:59;;;;;;;3.80;2.78;;;;;;;;;;5067593;28;25084;-71
2023/06/20 11:46:25;;;;;;;3.67;2.80;;;;;;;;;;5037079;28;25075;-71
2023/06/20 11:48:52;;;;;;;3.65;3.30;;;;;;;;;;5062659;28;25062;-72
2023/06/20 11:51:20;;;;;;;3.88;3.00;;;;;;;;;;5073342;28;25048;-71
2023/06/20 11:53:47;;;;;;;7.72;2.97;;;;;;;;;;5066701;28;25089;-72
2023/06/20 11:56:15;;;;;;;4.15;2.58;;;;;;;;;;5066658;28;25142;-70
2023/06/20 11:58:41;;;;;;;2.90;2.70;;;;;;;;;;5043990;28;25108;-72
2023/06/20 12:01:13;;;;;;;2.58;2.38;;;;;;;;;;5061247;28;25106;-71
2023/06/20 12:03:41;;;;;;;4.30;2.80;;;;;;;;;;5047148;28;25062;-72
2023/06/20 12:06:27;;;;;;;2.83;2.45;;;;;;;;;;5048228;28;25169;-72
2023/06/20 12:08:54;;;;;;;4.22;2.30;;;;;;;;;;5031673;28;25071;-72
2023/06/20 12:11:20;;;;;;;5.57;2.42;;;;;;;;;;5062017;28;25056;-71
2023/06/20 12:13:47;;;;;;;2.15;2.05;;;;;;;;;;5063372;28;25059;-71
2023/06/20 12:16:13;;;;;;;3.85;2.05;;;;;;;;;;5058623;28;25340;-71
2023/06/20 12:18:39;;;;;;;3.10;2.00;;;;;;;;;;5062375;28;25089;-74
2023/06/20 12:21:05;;;;;;;4.03;1.95;;;;;;;;;;5057082;28;25101;-72
2023/06/20 12:23:32;;;;;;;4.13;2.38;;;;;;;;;;5067240;28;25087;-73
2023/06/20 12:25:58;;;;;;;2.58;1.90;;;;;;;;;;5075320;28;25058;-71
2023/06/20 12:28:24;;;;;;;1.90;1.80;;;;;;;;;;5063340;28;25060;-73
2023/06/20 12:30:50;;;;;;;1.88;1.77;;;;;;;;;;5065301;28;25146;-72
2023/06/20 12:33:16;;;;;;;2.53;2.33;;;;;;;;;;5074064;28;25068;-69
2023/06/20 12:35:42;;;;;;;3.40;2.70;;;;;;;;;;5062648;28;25088;-72
2023/06/20 12:38:10;;;;;;;3.25;1.70;;;;;;;;;;5062125;28;25132;-70
2023/06/20 12:40:36;;;;;;;4.97;2.40;;;;;;;;;;5058027;28;25071;-69
2023/06/20 12:43:02;;;;;;;2.30;2.08;;;;;;;;;;5068796;28;25060;-69
2023/06/20 12:45:28;;;;;;;2.58;2.38;;;;;;;;;;5059016;28;25065;-70
2023/06/20 12:47:54;;;;;;;3.10;2.72;;;;;;;;;;5065201;28;25062;-69
2023/06/20 12:50:20;;;;;;;2.25;2.03;;;;;;;;;;5062850;28;25121;-72
2023/06/20 12:52:46;;;;;;;2.42;2.22;;;;;;;;;;5059100;28;25133;-72
2023/06/20 12:55:13;;;;;;;4.55;2.72;;;;;;;;;;5045095;28;25081;-71
2023/06/20 12:57:39;;;;;;;3.25;2.20;;;;;;;;;;5061793;28;25061;-71
2023/06/20 13:00:06;;;;;;;3.22;2.00;;;;;;;;;;5051573;28;25110;-71
2023/06/20 13:02:33;;;;;;;4.10;2.30;;;;;;;;;;5061539;28;25070;-72
2023/06/20 13:04:59;;;;;;;4.10;2.28;;;;;;;;;;5062785;28;25048;-71
2023/06/20 13:07:25;;;;;;;6.13;2.75;;;;;;;;;;5061339;28;25154;-72
2023/06/20 13:09:52;;;;;;;4.07;2.58;;;;;;;;;;5062641;28;25077;-70
2023/06/20 13:12:19;;;;;;;3.17;2.13;;;;;;;;;;5064213;28;25059;-72
2023/06/20 13:14:45;;;;;;;3.67;2.80;;;;;;;;;;5060791;28;25064;-75
2023/06/20 13:17:12;;;;;;;2.88;2.50;;;;;;;;;;5033935;28;25079;-70
2023/06/20 13:19:38;;;;;;;2.78;2.58;;;;;;;;;;5053983;28;25054;-71
2023/06/20 13:22:04;;;;;;;3.67;2.53;;;;;;;;;;5061786;28;25078;-70
2023/06/20 13:24:31;;;;;;;5.32;2.20;;;;;;;;;;5054402;28;25171;-72
2023/06/20 13:26:57;;;;;;;7.97;2.53;;;;;;;;;;5055959;28;25064;-71
2023/06/20 13:29:23;;;;;;;3.63;2.40;;;;;;;;;;5058138;28;25152;-70
2023/06/20 13:31:49;;;;;;;3.10;2.10;;;;;;;;;;5059008;28;25157;-70
2023/06/20 13:34:15;;;;;;;4.28;2.17;;;;;;;;;;5059955;28;25084;-70
2023/06/20 13:36:43;;;;;;;2.30;2.10;;;;;;;;;;5050083;28;25059;-71
2023/06/20 13:39:09;;;;;;;5.57;2.63;;;;;;;;;;5057109;28;25143;-71
2023/06/20 13:41:35;;;;;;;4.75;2.47;;;;;;;;;;5059709;28;25050;-71
2023/06/20 13:44:01;;;;;;;4.05;2.35;;;;;;;;;;5056829;28;25062;-70
2023/06/20 13:46:27;;;;;;;4.72;2.53;;;;;;;;;;5062207;28;25083;-70
2023/06/20 13:48:54;;;;;;;5.10;2.25;;;;;;;;;;5056093;28;25078;-70
2023/06/20 13:51:20;;;;;;;10.45;2.95;;;;;;;;;;5058012;28;25160;-72
2023/06/20 13:53:46;;;;;;;4.32;2.38;;;;;;;;;;5068118;28;25079;-69
2023/06/20 13:56:12;;;;;;;4.38;2.65;;;;;;;;;;5048333;28;25060;-69
2023/06/20 13:58:38;;;;;;;8.25;3.78;;;;;;;;;;5059098;28;25056;-70
2023/06/20 14:01:08;;;;;;;3.83;2.60;;;;;;;;;;5051337;28;25147;-70
2023/06/20 14:03:34;;;;;;;3.33;3.03;;;;;;;;;;5050587;28;25069;-70
2023/06/20 14:06:01;;;;;;;3.92;2.80;;;;;;;;;;5061099;28;25069;-69
2023/06/20 14:08:27;;;;;;;4.43;2.83;;;;;;;;;;5057115;28;25062;-70
2023/06/20 14:10:53;;;;;;;5.45;3.08;;;;;;;;;;5069697;28;25080;-70
2023/06/20 14:13:19;;;;;;;6.50;3.17;;;;;;;;;;5060376;28;25060;-71
2023/06/20 14:15:45;;;;;;;5.68;2.65;;;;;;;;;;5067302;28;25118;-68
2023/06/20 14:18:11;;;;;;;7.65;3.63;;;;;;;;;;5065435;28;25080;-70
2023/06/20 14:20:37;;;;;;;3.22;2.92;;;;;;;;;;5067439;28;25077;-70
2023/06/20 14:23:03;;;;;;;5.65;2.38;;;;;;;;;;5064100;28;25072;-70
2023/06/20 14:25:29;;;;;;;5.55;4.05;;;;;;;;;;5063300;28;25066;-70
2023/06/20 14:27:55;;;;;;;5.10;3.58;;;;;;;;;;5066969;28;25107;-69
2023/06/20 14:30:21;;;;;;;10.60;3.45;;;;;;;;;;5075261;28;25152;-70
2023/06/20 14:32:48;;;;;;;8.88;3.95;;;;;;;;;;5065193;28;25072;-68
2023/06/20 14:35:14;;;;;;;10.30;4.20;;;;;;;;;;5061337;28;25063;-70